Time;durP1;ratioP1;P1;durP2;ratioP2;P2;SDS_P1;SDS_P2;PMS_P1;PMS_P2;Temp;Humidity;BMP_temperature;BMP_pressure;BME280_temperature;BME280_humidity;BME280_pressure;Samples;Min_cycle;Max_cycle;Signal;HPM_P1;HPM_P2
2024/01/21 00:02:26;;;;;;;9.73;7.90;;;-2.60;99.90;;;;;;4998482;28;20814;-55
2024/01/21 00:04:52;;;;;;;9.60;8.67;;;-2.70;99.90;;;;;;4991191;28;20460;-56
2024/01/21 00:07:19;;;;;;;10.27;8.60;;;-2.70;99.90;;;;;;4990826;28;20476;-55
2024/01/21 00:09:45;;;;;;;12.93;9.07;;;-2.70;99.90;;;;;;4989090;28;20512;-56
2024/01/21 00:12:12;;;;;;;10.63;8.60;;;-2.70;99.90;;;;;;4984799;28;20481;-55
2024/01/21 00:14:38;;;;;;;10.13;9.13;;;-2.60;99.90;;;;;;4987130;28;20931;-55
2024/01/21 00:17:07;;;;;;;11.60;9.17;;;-2.60;99.90;;;;;;4986902;28;21229;-56
2024/01/21 00:19:35;;;;;;;11.97;9.90;;;-2.60;74.40;;;;;;4999674;28;20541;-56
2024/01/21 00:22:02;;;;;;;11.30;9.60;;;-2.70;21.30;;;;;;4991740;28;20503;-54
2024/01/21 00:24:28;;;;;;;10.60;9.20;;;-2.70;22.40;;;;;;4989468;28;21760;-56
2024/01/21 00:26:55;;;;;;;14.10;9.20;;;-2.70;24.60;;;;;;4986897;28;20519;-55
2024/01/21 00:29:21;;;;;;;13.20;9.77;;;-2.70;26.40;;;;;;4984982;28;20524;-55
2024/01/21 00:31:48;;;;;;;13.43;9.77;;;-2.70;28.20;;;;;;4990842;28;20488;-55
2024/01/21 00:34:15;;;;;;;14.57;10.47;;;-2.70;32.30;;;;;;4986483;28;20465;-55
2024/01/21 00:36:43;;;;;;;13.50;9.70;;;-2.70;36.60;;;;;;5000913;28;20494;-55
2024/01/21 00:39:09;;;;;;;14.63;10.37;;;-2.70;41.10;;;;;;4989264;28;20967;-55
2024/01/21 00:41:36;;;;;;;11.67;10.40;;;-2.70;44.60;;;;;;4992243;28;20440;-56
2024/01/21 00:44:02;;;;;;;12.07;10.30;;;-2.70;46.10;;;;;;4985253;28;20493;-55
2024/01/21 00:46:30;;;;;;;13.63;9.63;;;-2.80;46.80;;;;;;4990395;28;20507;-55
2024/01/21 00:48:57;;;;;;;10.90;8.70;;;-2.80;48.00;;;;;;4992684;28;20511;-55
2024/01/21 00:51:24;;;;;;;14.07;9.73;;;-2.80;49.80;;;;;;4988238;28;20488;-55
2024/01/21 00:53:52;;;;;;;9.93;8.30;;;-2.80;52.90;;;;;;4992420;28;20460;-55
2024/01/21 00:56:18;;;;;;;14.87;9.47;;;-2.80;54.50;;;;;;4995455;28;20455;-55
2024/01/21 00:58:46;;;;;;;13.30;9.70;;;-2.90;55.70;;;;;;4981456;28;20445;-54
2024/01/21 01:01:13;;;;;;;14.57;9.90;;;-2.90;55.10;;;;;;4986142;28;20599;-55
2024/01/21 01:03:39;;;;;;;12.30;9.63;;;-2.90;56.00;;;;;;4986207;28;20512;-55
2024/01/21 01:06:07;;;;;;;13.27;9.53;;;-2.90;56.40;;;;;;4983940;28;20440;-55
2024/01/21 01:08:33;;;;;;;10.53;8.53;;;-2.90;58.20;;;;;;4997653;28;20450;-55
2024/01/21 01:11:01;;;;;;;12.30;8.93;;;-3.00;58.10;;;;;;4981749;28;20516;-56
2024/01/21 01:13:28;;;;;;;11.00;9.03;;;-2.90;62.20;;;;;;4992594;28;20465;-54
2024/01/21 01:15:54;;;;;;;11.23;8.03;;;-3.00;60.00;;;;;;4985935;28;20499;-56
2024/01/21 01:18:21;;;;;;;12.43;10.00;;;-3.00;62.60;;;;;;4980091;28;20496;-55
2024/01/21 01:20:47;;;;;;;10.23;8.93;;;-3.00;64.50;;;;;;4979810;28;20476;-57
2024/01/21 01:23:14;;;;;;;11.47;9.43;;;-3.00;65.60;;;;;;4982217;28;20452;-56
2024/01/21 01:25:41;;;;;;;12.13;8.80;;;-3.00;66.80;;;;;;4999128;28;20448;-55
2024/01/21 01:28:09;;;;;;;13.03;9.60;;;-3.00;67.60;;;;;;4986802;28;20480;-55
2024/01/21 01:30:36;;;;;;;10.07;8.80;;;-3.10;68.60;;;;;;4994927;28;20475;-56
2024/01/21 01:33:03;;;;;;;17.47;8.97;;;-3.10;70.80;;;;;;4986791;28;20476;-54
2024/01/21 01:35:29;;;;;;;11.20;8.93;;;-3.00;73.70;;;;;;4979534;28;20449;-55
2024/01/21 01:37:56;;;;;;;10.53;9.10;;;-3.10;76.80;;;;;;4985927;28;20445;-55
2024/01/21 01:40:22;;;;;;;10.50;9.47;;;-3.10;77.20;;;;;;4988848;28;20457;-56
2024/01/21 01:42:56;;;;;;;15.80;9.33;;;-3.10;77.60;;;;;;4988888;28;20488;-57
2024/01/21 01:45:24;;;;;;;13.13;9.40;;;-3.10;80.40;;;;;;4991067;28;20453;-55
2024/01/21 01:47:51;;;;;;;11.07;8.17;;;-3.10;78.50;;;;;;4989668;28;20440;-55
2024/01/21 01:50:19;;;;;;;13.10;8.53;;;-3.10;78.80;;;;;;4989052;28;20476;-56
2024/01/21 01:52:46;;;;;;;11.23;9.43;;;-3.10;83.20;;;;;;4984994;28;20548;-56
2024/01/21 01:55:13;;;;;;;10.67;9.57;;;-3.10;84.90;;;;;;4998951;28;20501;-56
2024/01/21 01:57:40;;;;;;;10.73;8.97;;;-3.10;86.20;;;;;;4985476;28;20481;-55
2024/01/21 02:00:08;;;;;;;9.33;8.40;;;-3.10;89.40;;;;;;4988909;28;20520;-55
2024/01/21 02:02:36;;;;;;;11.03;9.00;;;-3.20;91.10;;;;;;4987953;28;20476;-55
2024/01/21 02:05:04;;;;;;;13.30;9.10;;;-3.20;91.70;;;;;;4989138;28;20473;-56
2024/01/21 02:07:31;;;;;;;10.40;8.03;;;-3.10;99.40;;;;;;4981718;28;20509;-55
2024/01/21 02:09:58;;;;;;;10.63;8.97;;;-3.10;98.80;;;;;;4983387;28;20465;-57
2024/01/21 02:12:24;;;;;;;11.47;8.80;;;-3.20;98.90;;;;;;4992792;28;20542;-55
2024/01/21 02:14:51;;;;;;;8.80;8.00;;;-3.10;98.50;;;;;;4998067;28;20444;-56
2024/01/21 02:17:17;;;;;;;9.90;8.40;;;-3.20;99.90;;;;;;4989695;28;21026;-56
2024/01/21 02:19:45;;;;;;;9.70;8.33;;;-3.20;99.90;;;;;;4987007;28;20534;-55
2024/01/21 02:22:12;;;;;;;11.33;8.70;;;-3.20;99.90;;;;;;4984701;28;20516;-55
2024/01/21 02:24:40;;;;;;;12.90;8.93;;;-3.20;99.10;;;;;;4990732;28;20954;-55
2024/01/21 02:27:07;;;;;;;10.23;8.77;;;-3.20;97.90;;;;;;4986726;28;20882;-55
2024/01/21 02:29:33;;;;;;;10.63;8.97;;;-3.20;99.90;;;;;;4988272;28;20539;-55
2024/01/21 02:32:00;;;;;;;12.13;9.13;;;-3.20;99.90;;;;;;4983136;28;20488;-56
2024/01/21 02:34:27;;;;;;;12.47;9.90;;;-3.10;99.90;;;;;;4990234;28;20455;-54
2024/01/21 02:36:53;;;;;;;13.43;8.90;;;-3.20;99.90;;;;;;4993472;28;20505;-55
2024/01/21 02:39:20;;;;;;;9.27;8.30;;;-3.10;99.90;;;;;;4981543;28;20473;-55
2024/01/21 02:41:48;;;;;;;11.73;10.07;;;-3.20;99.90;;;;;;4988986;28;20502;-55
2024/01/21 02:44:14;;;;;;;12.23;9.10;;;-3.20;99.90;;;;;;4993102;28;20446;-55
2024/01/21 02:46:42;;;;;;;10.80;9.70;;;-3.20;99.90;;;;;;4993413;28;20468;-54
2024/01/21 02:49:09;;;;;;;10.40;8.87;;;-3.20;99.90;;;;;;4990971;28;20994;-56
2024/01/21 02:51:35;;;;;;;10.70;9.00;;;-3.20;99.90;;;;;;4994064;28;20444;-56
2024/01/21 02:54:02;;;;;;;13.20;9.80;;;-3.30;99.90;;;;;;4996527;28;20449;-56
2024/01/21 02:56:29;;;;;;;10.37;8.80;;;-3.30;99.90;;;;;;4989742;28;20446;-55
2024/01/21 02:58:56;;;;;;;10.83;9.40;;;-3.30;99.90;;;;;;4981638;28;20449;-56
2024/01/21 03:01:23;;;;;;;11.10;9.80;;;-3.20;99.90;;;;;;4985529;28;20454;-55
2024/01/21 03:03:51;;;;;;;10.13;9.10;;;-3.30;99.90;;;;;;4982216;28;20440;-56
2024/01/21 03:06:18;;;;;;;11.60;9.07;;;-3.30;99.90;;;;;;4997489;28;20465;-55
2024/01/21 03:08:45;;;;;;;12.60;9.83;;;-3.30;99.90;;;;;;4985481;28;20947;-56
2024/01/21 03:11:12;;;;;;;12.10;9.90;;;-3.20;99.90;;;;;;4981468;28;20983;-55
2024/01/21 03:13:38;;;;;;;12.10;9.17;;;-3.30;99.90;;;;;;4985891;28;20991;-55
2024/01/21 03:16:06;;;;;;;10.87;9.53;;;-3.30;99.90;;;;;;4992718;28;20498;-55
2024/01/21 03:18:38;;;;;;;9.97;8.43;;;-3.30;99.90;;;;;;4992502;28;20449;-55
2024/01/21 03:21:05;;;;;;;8.07;7.23;;;-3.30;99.90;;;;;;4987687;28;20462;-55
2024/01/21 03:23:31;;;;;;;9.70;8.60;;;-3.20;99.90;;;;;;4992910;28;20442;-55
2024/01/21 03:25:58;;;;;;;10.07;9.00;;;-3.20;99.90;;;;;;4985558;28;20456;-55
2024/01/21 03:28:25;;;;;;;13.30;9.10;;;-3.20;99.90;;;;;;4996142;28;20438;-61
2024/01/21 03:30:51;;;;;;;9.83;8.80;;;-3.20;99.90;;;;;;5003632;28;20461;-63
2024/01/21 03:33:19;;;;;;;13.13;8.90;;;-3.10;99.90;;;;;;5008234;28;20463;-55
2024/01/21 03:35:47;;;;;;;8.93;8.03;;;-3.10;99.90;;;;;;5006283;28;20449;-56
2024/01/21 03:38:14;;;;;;;10.37;7.93;;;-3.00;99.90;;;;;;4993730;28;20975;-55
2024/01/21 03:40:40;;;;;;;8.50;7.33;;;-3.00;99.90;;;;;;4987954;28;20476;-54
2024/01/21 03:43:07;;;;;;;9.73;7.90;;;-3.00;99.90;;;;;;4982450;28;20951;-55
2024/01/21 03:45:34;;;;;;;14.23;9.10;;;-3.00;99.90;;;;;;4990256;28;20447;-55
2024/01/21 03:48:00;;;;;;;9.10;8.10;;;-2.90;99.90;;;;;;4986178;28;20444;-55
2024/01/21 03:50:28;;;;;;;12.57;8.90;;;-2.90;99.90;;;;;;5003132;28;20494;-55
2024/01/21 03:52:55;;;;;;;8.97;8.00;;;-2.80;99.90;;;;;;4985368;28;20481;-55
2024/01/21 03:55:22;;;;;;;9.67;8.20;;;-2.80;99.90;;;;;;4992830;28;20462;-55
2024/01/21 03:57:49;;;;;;;10.50;8.33;;;-2.70;99.90;;;;;;4995228;28;20529;-56
2024/01/21 04:00:16;;;;;;;10.27;8.73;;;-2.70;99.90;;;;;;4978274;28;20477;-55
2024/01/21 04:02:43;;;;;;;9.63;8.50;;;-2.70;99.90;;;;;;4992349;28;20468;-55
2024/01/21 04:05:09;;;;;;;10.30;8.33;;;-2.70;99.90;;;;;;4994655;28;20449;-57
2024/01/21 04:07:37;;;;;;;10.73;8.53;;;-2.70;99.90;;;;;;4985408;28;20503;-55
2024/01/21 04:10:06;;;;;;;10.40;8.87;;;-2.70;99.90;;;;;;4982584;28;20987;-56
2024/01/21 04:12:33;;;;;;;10.53;8.17;;;-2.60;99.90;;;;;;4990893;28;20493;-54
2024/01/21 04:15:00;;;;;;;8.13;7.33;;;-2.60;99.90;;;;;;4994068;28;20445;-55
2024/01/21 04:17:26;;;;;;;11.33;8.50;;;-2.60;99.90;;;;;;4989555;28;20463;-55
2024/01/21 04:19:53;;;;;;;9.50;7.97;;;-2.60;99.90;;;;;;4982580;28;20473;-55
2024/01/21 04:22:21;;;;;;;9.43;7.10;;;-2.60;99.90;;;;;;4986949;28;20892;-55
2024/01/21 04:24:49;;;;;;;11.20;8.30;;;-2.50;99.90;;;;;;4990325;28;20463;-55
2024/01/21 04:27:16;;;;;;;10.90;7.43;;;-2.50;99.90;;;;;;4992661;28;20441;-55
2024/01/21 04:29:42;;;;;;;10.50;8.40;;;-2.50;99.90;;;;;;4982498;28;20879;-56
2024/01/21 04:32:09;;;;;;;7.87;7.10;;;-2.50;99.90;;;;;;4981784;28;20453;-56
2024/01/21 04:34:36;;;;;;;9.53;7.50;;;-2.50;99.90;;;;;;4983566;28;20885;-56
2024/01/21 04:37:02;;;;;;;8.50;7.43;;;-2.50;99.90;;;;;;4978167;28;20504;-56
2024/01/21 04:39:29;;;;;;;7.80;7.10;;;-2.50;99.90;;;;;;4982961;28;20568;-55
2024/01/21 04:41:57;;;;;;;9.70;7.77;;;-2.50;99.90;;;;;;4994519;28;20445;-56
2024/01/21 04:44:24;;;;;;;9.20;7.53;;;-2.50;99.90;;;;;;4990166;28;20457;-55
2024/01/21 04:46:51;;;;;;;9.37;8.40;;;-2.50;99.90;;;;;;4989756;28;20464;-55
2024/01/21 04:49:17;;;;;;;8.47;7.43;;;-2.50;99.90;;;;;;4996708;28;20483;-55
2024/01/21 04:51:44;;;;;;;7.97;7.20;;;-2.50;99.90;;;;;;4992181;28;20511;-55
2024/01/21 04:54:11;;;;;;;8.70;7.37;;;-2.50;99.90;;;;;;4991280;28;20485;-55
2024/01/21 04:56:37;;;;;;;9.20;6.80;;;-2.50;99.90;;;;;;4989900;28;20523;-55
2024/01/21 04:59:05;;;;;;;8.77;7.67;;;-2.50;99.90;;;;;;4993374;28;20515;-56
2024/01/21 05:01:33;;;;;;;9.30;7.60;;;-2.40;99.90;;;;;;4990032;28;20478;-55
2024/01/21 05:04:00;;;;;;;8.30;7.10;;;-2.50;99.90;;;;;;4993709;28;20444;-56
2024/01/21 05:06:26;;;;;;;8.50;7.60;;;-2.50;99.90;;;;;;4980555;28;20446;-54
2024/01/21 05:08:53;;;;;;;8.80;7.03;;;-2.50;99.90;;;;;;4982025;28;20865;-56
2024/01/21 05:11:20;;;;;;;8.00;7.30;;;-2.40;99.90;;;;;;4977559;28;20450;-55
2024/01/21 05:13:46;;;;;;;8.80;7.30;;;-2.40;99.90;;;;;;4985142;28;20894;-57
2024/01/21 05:16:14;;;;;;;8.57;7.73;;;-2.50;99.90;;;;;;5010826;28;20822;-55
2024/01/21 05:18:41;;;;;;;8.00;6.87;;;-2.40;99.90;;;;;;4998951;28;20515;-55
2024/01/21 05:21:08;;;;;;;7.50;6.77;;;-2.40;99.90;;;;;;4991500;28;20469;-56
2024/01/21 05:23:34;;;;;;;7.70;7.00;;;-2.40;99.90;;;;;;4997369;28;20461;-55
2024/01/21 05:26:01;;;;;;;7.60;6.93;;;-2.40;1.40;;;;;;4997430;28;20459;-57
2024/01/21 05:28:27;;;;;;;8.47;7.67;;;-2.40;1.40;;;;;;4983858;28;20955;-54
2024/01/21 05:30:54;;;;;;;8.80;7.90;;;-2.40;1.40;;;;;;4976666;28;20520;-54
2024/01/21 05:33:22;;;;;;;8.17;7.43;;;-2.40;99.90;;;;;;4995450;28;20475;-55
2024/01/21 05:35:48;;;;;;;7.93;7.03;;;-2.40;99.90;;;;;;4994394;28;20480;-56
2024/01/21 05:38:15;;;;;;;12.33;7.53;;;-2.40;99.90;;;;;;4991484;28;20465;-55
2024/01/21 05:40:42;;;;;;;8.40;7.50;;;-2.40;99.90;;;;;;4991060;28;20535;-55
2024/01/21 05:43:09;;;;;;;7.67;6.90;;;-2.40;99.90;;;;;;4984129;28;20887;-55
2024/01/21 05:45:35;;;;;;;11.27;7.63;;;-2.40;99.90;;;;;;4980969;28;20452;-56
2024/01/21 05:48:02;;;;;;;7.80;7.00;;;-2.40;99.90;;;;;;4979689;28;20828;-55
2024/01/21 05:50:30;;;;;;;7.80;6.53;;;-2.40;99.90;;;;;;4986993;28;20469;-55
2024/01/21 05:52:56;;;;;;;7.80;6.63;;;-2.40;99.90;;;;;;4979876;28;20485;-55
2024/01/21 05:55:23;;;;;;;6.57;5.87;;;-2.40;99.90;;;;;;4996015;28;20450;-55
2024/01/21 05:57:50;;;;;;;10.20;7.10;;;-2.40;99.90;;;;;;4983056;28;20449;-55
2024/01/21 06:00:17;;;;;;;8.47;6.80;;;-2.40;99.90;;;;;;4987063;28;20483;-56
2024/01/21 06:02:44;;;;;;;8.63;7.73;;;-2.40;99.90;;;;;;4988963;28;20459;-55
2024/01/21 06:05:11;;;;;;;8.50;6.80;;;-2.40;99.90;;;;;;4989143;28;20449;-56
2024/01/21 06:07:39;;;;;;;7.80;6.70;;;-2.40;99.90;;;;;;4990163;28;20439;-55
2024/01/21 06:10:06;;;;;;;7.87;7.13;;;-2.40;99.90;;;;;;4983203;28;20462;-56
2024/01/21 06:12:33;;;;;;;8.00;7.20;;;-2.40;99.90;;;;;;4999937;28;20448;-55
2024/01/21 06:14:59;;;;;;;9.03;7.50;;;-2.40;99.90;;;;;;4983485;28;21020;-55
2024/01/21 06:17:26;;;;;;;6.93;6.33;;;-2.50;99.90;;;;;;4980825;28;20868;-55
2024/01/21 06:19:53;;;;;;;6.53;5.93;;;-2.40;99.90;;;;;;4993690;28;20489;-56
2024/01/21 06:22:19;;;;;;;9.40;8.40;;;-2.40;99.90;;;;;;4994817;28;20468;-55
2024/01/21 06:24:47;;;;;;;7.20;6.50;;;-2.40;99.90;;;;;;4992068;28;20441;-55
2024/01/21 06:27:14;;;;;;;6.80;6.17;;;-2.50;99.90;;;;;;4991018;28;20452;-55
2024/01/21 06:29:43;;;;;;;7.47;6.43;;;-2.50;99.90;;;;;;4987247;28;20472;-55
2024/01/21 06:32:10;;;;;;;7.13;6.43;;;-2.40;99.90;;;;;;4999920;28;20467;-56
2024/01/21 06:34:36;;;;;;;7.07;6.37;;;-2.40;99.90;;;;;;4995205;28;20480;-56
2024/01/21 06:37:03;;;;;;;7.70;6.37;;;-2.40;99.90;;;;;;4988932;28;20464;-56
2024/01/21 06:39:30;;;;;;;6.80;6.10;;;-2.40;99.90;;;;;;4986216;28;20551;-55
2024/01/21 06:41:58;;;;;;;8.73;6.70;;;-2.40;99.90;;;;;;4987791;28;20464;-55
2024/01/21 06:44:24;;;;;;;7.03;6.43;;;-2.40;99.90;;;;;;4990623;28;20829;-55
2024/01/21 06:46:51;;;;;;;9.60;7.20;;;-2.30;99.90;;;;;;4994909;28;20503;-55
2024/01/21 06:49:18;;;;;;;7.20;6.60;;;-2.30;99.90;;;;;;4988099;28;20465;-55
2024/01/21 06:51:46;;;;;;;7.93;7.13;;;-2.30;99.90;;;;;;4986413;28;20465;-55
2024/01/21 06:54:13;;;;;;;7.77;7.07;;;-2.30;99.90;;;;;;4982967;28;21001;-56
2024/01/21 06:56:40;;;;;;;8.00;7.23;;;-2.20;99.90;;;;;;4984004;28;20962;-55
2024/01/21 06:59:08;;;;;;;9.13;7.33;;;-2.20;99.90;;;;;;4989010;28;20537;-55
2024/01/21 07:01:34;;;;;;;11.23;7.30;;;-2.20;99.90;;;;;;4991366;28;20480;-56
2024/01/21 07:04:01;;;;;;;8.23;7.43;;;-2.20;99.90;;;;;;4991794;28;20445;-56
2024/01/21 07:06:27;;;;;;;7.77;6.67;;;-2.20;99.90;;;;;;5000558;28;20859;-55
2024/01/21 07:08:55;;;;;;;7.77;7.03;;;-2.20;99.90;;;;;;4998381;28;20465;-55
2024/01/21 07:11:22;;;;;;;8.47;6.90;;;-2.20;99.90;;;;;;4990468;28;20560;-56
2024/01/21 07:13:48;;;;;;;8.33;7.50;;;-2.10;99.90;;;;;;4993518;28;21047;-56
2024/01/21 07:16:16;;;;;;;6.40;5.90;;;-2.10;99.90;;;;;;4990602;28;20461;-55
2024/01/21 07:18:43;;;;;;;8.47;7.40;;;-2.10;99.90;;;;;;4996464;28;20498;-56
2024/01/21 07:21:09;;;;;;;6.80;6.20;;;-2.10;99.90;;;;;;4992095;28;21012;-56
2024/01/21 07:23:39;;;;;;;7.57;6.90;;;-2.00;99.90;;;;;;4993048;28;20508;-55
2024/01/21 07:26:05;;;;;;;7.80;6.30;;;-2.00;99.90;;;;;;4988612;28;20945;-56
2024/01/21 07:28:32;;;;;;;6.10;5.60;;;-2.00;99.90;;;;;;4999819;28;20513;-56
2024/01/21 07:30:58;;;;;;;23.97;21.40;;;-1.90;99.90;;;;;;4993989;28;20539;-55
2024/01/21 07:33:26;;;;;;;7.50;6.13;;;-1.80;99.90;;;;;;5000347;28;20498;-55
2024/01/21 07:35:53;;;;;;;23.83;21.53;;;-1.80;99.90;;;;;;4998970;28;21203;-55
2024/01/21 07:38:19;;;;;;;8.27;6.43;;;-1.70;99.90;;;;;;4997583;28;21032;-55
2024/01/21 07:40:47;;;;;;;14.40;12.90;;;-1.70;99.90;;;;;;5000522;28;20904;-55
2024/01/21 07:43:14;;;;;;;13.77;11.90;;;-1.70;99.90;;;;;;5002125;28;20457;-54
2024/01/21 07:45:41;;;;;;;30.23;26.60;;;-1.70;99.90;;;;;;4997570;28;20921;-56
2024/01/21 07:48:08;;;;;;;10.00;7.10;;;-1.70;99.90;;;;;;4991929;28;20910;-55
2024/01/21 07:50:36;;;;;;;8.70;6.97;;;-1.70;99.90;;;;;;5000792;28;20491;-55
2024/01/21 07:53:03;;;;;;;7.80;6.67;;;-1.70;99.90;;;;;;4988528;28;20457;-54
2024/01/21 07:55:29;;;;;;;9.30;7.43;;;-1.70;99.90;;;;;;4994666;28;20467;-55
2024/01/21 07:57:56;;;;;;;8.63;7.50;;;-1.80;99.90;;;;;;4995421;28;20574;-55
2024/01/21 08:00:23;;;;;;;9.30;7.60;;;-1.80;99.90;;;;;;4999538;28;20582;-55
2024/01/21 08:02:49;;;;;;;7.60;6.90;;;-1.70;99.90;;;;;;4999961;28;20467;-55
2024/01/21 08:05:16;;;;;;;8.63;7.37;;;-1.70;99.90;;;;;;4989873;28;20457;-56
2024/01/21 08:07:45;;;;;;;11.27;8.13;;;-1.60;99.90;;;;;;4987288;28;20476;-55
2024/01/21 08:10:11;;;;;;;6.93;6.30;;;-1.60;99.90;;;;;;4991418;28;20594;-55
2024/01/21 08:12:38;;;;;;;7.23;6.07;;;-1.50;99.90;;;;;;4988413;28;20515;-55
2024/01/21 08:15:06;;;;;;;7.17;6.30;;;-1.40;99.90;;;;;;4989819;28;20488;-56
2024/01/21 08:17:32;;;;;;;7.20;6.50;;;-1.30;99.90;;;;;;4987759;28;20464;-55
2024/01/21 08:19:59;;;;;;;7.27;6.27;;;-1.20;99.90;;;;;;4990142;28;20487;-55
2024/01/21 08:22:25;;;;;;;6.80;6.20;;;-1.20;99.90;;;;;;4989880;28;21676;-54
2024/01/21 08:24:54;;;;;;;6.10;5.50;;;-1.20;99.90;;;;;;4991707;28;20511;-55
2024/01/21 08:27:21;;;;;;;6.97;5.80;;;-1.10;99.90;;;;;;4988346;28;20470;-55
2024/01/21 08:29:48;;;;;;;7.70;6.47;;;-1.10;99.90;;;;;;4983068;28;20484;-55
2024/01/21 08:32:14;;;;;;;7.53;6.77;;;-1.10;99.90;;;;;;4989614;28;20542;-56
2024/01/21 08:34:41;;;;;;;9.27;6.80;;;-1.20;99.90;;;;;;4986668;28;20547;-55
2024/01/21 08:37:08;;;;;;;7.93;6.67;;;-1.20;99.90;;;;;;4974223;28;20468;-55
2024/01/21 08:39:34;;;;;;;7.57;6.57;;;-1.10;99.90;;;;;;4980181;28;20489;-55
2024/01/21 08:42:03;;;;;;;7.90;6.30;;;-1.10;99.90;;;;;;4981044;28;20497;-56
2024/01/21 08:44:29;;;;;;;7.83;6.80;;;-1.10;99.90;;;;;;4980808;28;20467;-55
2024/01/21 08:46:57;;;;;;;8.00;6.57;;;-1.10;99.90;;;;;;4981349;28;20543;-55
2024/01/21 08:49:26;;;;;;;7.03;6.47;;;-1.00;99.90;;;;;;4985004;28;20500;-55
2024/01/21 08:51:52;;;;;;;6.83;6.23;;;-0.90;99.90;;;;;;4983060;28;20981;-56
2024/01/21 08:54:19;;;;;;;6.80;6.10;;;-0.70;99.90;;;;;;4990972;28;20531;-55
2024/01/21 08:56:45;;;;;;;6.30;5.70;;;-0.70;99.90;;;;;;4992952;28;20963;-55
2024/01/21 08:59:13;;;;;;;6.97;5.70;;;-0.50;99.90;;;;;;4990122;28;21003;-55
2024/01/21 09:01:40;;;;;;;5.40;4.90;;;-0.40;99.90;;;;;;4990839;28;20476;-58
2024/01/21 09:04:06;;;;;;;5.33;4.43;;;-0.30;99.90;;;;;;4983698;28;20519;-58
2024/01/21 09:06:35;;;;;;;8.33;4.70;;;-0.30;99.90;;;;;;4994208;28;20499;-58
2024/01/21 09:09:01;;;;;;;7.67;4.93;;;-0.20;99.90;;;;;;4992908;28;20475;-58
2024/01/21 09:11:28;;;;;;;5.20;4.80;;;0.00;99.90;;;;;;4994881;28;20464;-58
2024/01/21 09:13:54;;;;;;;3.97;3.67;;;0.00;99.90;;;;;;4988846;28;20562;-58
2024/01/21 09:16:23;;;;;;;4.80;4.40;;;0.10;99.90;;;;;;4992608;28;20971;-58
2024/01/21 09:18:49;;;;;;;6.63;5.50;;;0.20;99.90;;;;;;4992324;28;20466;-59
2024/01/21 09:21:16;;;;;;;5.83;4.63;;;0.20;99.90;;;;;;4991620;28;20460;-57
2024/01/21 09:23:43;;;;;;;6.40;5.30;;;0.20;99.90;;;;;;4993365;28;20455;-57
2024/01/21 09:26:10;;;;;;;5.43;4.93;;;0.20;99.90;;;;;;4992333;28;20463;-58
2024/01/21 09:28:36;;;;;;;5.13;4.63;;;0.30;99.90;;;;;;4989729;28;20456;-58
2024/01/21 09:31:03;;;;;;;6.47;5.40;;;0.40;99.90;;;;;;4997977;28;20475;-59
2024/01/21 09:33:31;;;;;;;5.73;4.97;;;0.40;99.90;;;;;;4993412;28;20468;-57
2024/01/21 09:35:58;;;;;;;5.00;3.77;;;0.50;99.90;;;;;;4995978;28;20448;-58
2024/01/21 09:38:24;;;;;;;5.27;4.47;;;0.50;99.90;;;;;;4993720;28;20465;-58
2024/01/21 09:40:57;;;;;;;3.90;3.50;;;0.60;99.90;;;;;;4994103;28;20903;-58
2024/01/21 09:43:24;;;;;;;4.10;3.77;;;0.60;99.90;;;;;;5005645;28;20467;-58
2024/01/21 09:45:52;;;;;;;3.17;3.03;;;0.70;99.90;;;;;;5010405;28;20453;-63
2024/01/21 09:48:19;;;;;;;3.57;3.37;;;0.80;99.90;;;;;;5015655;28;20512;-58
2024/01/21 09:50:48;;;;;;;4.70;4.07;;;0.90;99.90;;;;;;5011766;28;20481;-59
2024/01/21 09:53:15;;;;;;;3.30;3.10;;;1.00;99.90;;;;;;5002559;28;20806;-58
2024/01/21 09:55:42;;;;;;;3.63;3.30;;;1.10;99.90;;;;;;4994790;28;20531;-60
2024/01/21 09:58:13;;;;;;;3.80;3.50;;;1.20;99.90;;;;;;4993770;28;20537;-59
2024/01/21 10:00:41;;;;;;;3.73;3.37;;;1.20;99.90;;;;;;4994026;28;20543;-58
2024/01/21 10:03:07;;;;;;;7.93;4.47;;;1.20;99.90;;;;;;4994236;28;20955;-59
2024/01/21 10:05:34;;;;;;;4.77;4.17;;;1.20;99.90;;;;;;4995955;28;20885;-57
2024/01/21 10:08:03;;;;;;;3.50;3.20;;;1.30;99.90;;;;;;4995617;28;20554;-57
2024/01/21 10:10:30;;;;;;;2.87;2.67;;;1.40;99.90;;;;;;4991826;28;20492;-58
2024/01/21 10:12:56;;;;;;;2.73;2.53;;;1.40;99.90;;;;;;4989894;28;20456;-57
2024/01/21 10:15:23;;;;;;;2.37;2.27;;;1.40;99.90;;;;;;4991634;28;20475;-58
2024/01/21 10:17:51;;;;;;;2.87;2.67;;;1.50;99.90;;;;;;4987017;28;21100;-58
2024/01/21 10:20:19;;;;;;;3.93;3.30;;;1.50;99.90;;;;;;4990436;28;20541;-58
2024/01/21 10:22:47;;;;;;;3.50;3.07;;;1.60;99.90;;;;;;4993342;28;20470;-58
2024/01/21 10:25:15;;;;;;;4.10;2.93;;;1.50;99.90;;;;;;4992920;28;20861;-57
2024/01/21 10:27:46;;;;;;;3.00;2.80;;;1.60;99.90;;;;;;4990131;28;20464;-59
2024/01/21 10:30:13;;;;;;;6.03;2.60;;;1.70;99.90;;;;;;4995888;28;20555;-59
2024/01/21 10:32:40;;;;;;;3.23;2.47;;;1.70;99.90;;;;;;4995061;28;20503;-57
2024/01/21 10:35:07;;;;;;;2.73;2.63;;;1.80;99.90;;;;;;4997000;28;20525;-58
2024/01/21 10:37:39;;;;;;;3.10;2.90;;;1.80;99.90;;;;;;4995836;28;20479;-57
2024/01/21 10:40:08;;;;;;;3.43;3.23;;;1.80;99.90;;;;;;4994179;28;20836;-58
2024/01/21 10:42:37;;;;;;;3.03;2.83;;;1.90;99.90;;;;;;4994870;28;20879;-58
2024/01/21 10:45:06;;;;;;;5.80;2.50;;;1.80;99.90;;;;;;4986055;28;20500;-57
2024/01/21 10:47:33;;;;;;;3.10;2.90;;;1.80;99.90;;;;;;4992648;28;20443;-58
2024/01/21 10:50:00;;;;;;;2.53;2.30;;;1.80;99.90;;;;;;4993991;28;20514;-58
2024/01/21 10:52:27;;;;;;;2.67;2.57;;;1.70;99.90;;;;;;5005819;28;20502;-59
2024/01/21 10:54:55;;;;;;;2.90;2.67;;;1.70;99.90;;;;;;5003302;28;20543;-58
2024/01/21 10:57:21;;;;;;;2.70;2.50;;;1.80;99.90;;;;;;4999290;28;20472;-58
2024/01/21 10:59:50;;;;;;;2.90;2.50;;;1.80;99.90;;;;;;4987266;28;20539;-58
2024/01/21 11:02:17;;;;;;;2.57;2.30;;;1.90;99.90;;;;;;4988275;28;20485;-58
2024/01/21 11:04:43;;;;;;;4.60;2.63;;;1.90;99.90;;;;;;5007215;28;20795;-57
2024/01/21 11:07:13;;;;;;;3.00;2.73;;;2.00;99.90;;;;;;4994200;28;20500;-59
2024/01/21 11:09:41;;;;;;;2.77;2.57;;;2.10;99.90;;;;;;4995481;28;20463;-58
2024/01/21 11:12:10;;;;;;;2.43;2.33;;;2.20;99.90;;;;;;4997780;28;20480;-58
2024/01/21 11:14:39;;;;;;;2.33;2.23;;;2.30;99.90;;;;;;4989790;28;20527;-58
2024/01/21 11:17:10;;;;;;;2.30;2.13;;;2.30;99.90;;;;;;5004615;28;20573;-57
2024/01/21 11:19:44;;;;;;;2.60;2.40;;;2.50;99.90;;;;;;4989657;28;20487;-60
2024/01/21 11:22:11;;;;;;;2.60;2.17;;;2.80;99.90;;;;;;4993442;28;20863;-59
2024/01/21 11:24:40;;;;;;;2.77;1.97;;;2.90;99.90;;;;;;4999095;28;20440;-58
2024/01/21 11:27:15;;;;;;;2.70;2.50;;;2.90;99.90;;;;;;5004635;28;20452;-59
2024/01/21 11:29:42;;;;;;;5.23;2.40;;;3.00;99.90;;;;;;5001200;28;20819;-59
2024/01/21 11:32:10;;;;;;;1.80;1.70;;;3.10;99.90;;;;;;4997506;28;20445;-58
2024/01/21 11:34:38;;;;;;;2.20;2.10;;;3.20;99.90;;;;;;4995903;28;20890;-58
2024/01/21 11:37:05;;;;;;;2.43;2.23;;;3.20;99.90;;;;;;4999035;28;20444;-58
2024/01/21 11:39:32;;;;;;;2.40;2.30;;;3.10;99.90;;;;;;4989742;28;20483;-58
2024/01/21 11:41:58;;;;;;;2.20;2.10;;;3.10;99.90;;;;;;4994668;28;20778;-58
2024/01/21 11:44:26;;;;;;;2.50;2.40;;;3.00;99.90;;;;;;5006989;28;20487;-57
2024/01/21 11:46:54;;;;;;;2.20;2.10;;;3.10;99.90;;;;;;4995748;28;20444;-58
2024/01/21 11:49:23;;;;;;;2.37;2.27;;;3.10;99.90;;;;;;5006675;28;20526;-59
2024/01/21 11:51:50;;;;;;;2.53;2.33;;;3.20;99.90;;;;;;5017330;28;20440;-57
2024/01/21 11:54:17;;;;;;;2.77;2.57;;;3.20;99.90;;;;;;5020235;28;20445;-58
2024/01/21 11:56:44;;;;;;;2.60;2.50;;;3.20;99.90;;;;;;5006657;28;20460;-59
2024/01/21 11:59:11;;;;;;;2.87;2.67;;;3.20;99.90;;;;;;5002299;28;20474;-58
2024/01/21 12:01:39;;;;;;;4.80;2.80;;;3.30;99.90;;;;;;4992274;28;20453;-58
2024/01/21 12:04:08;;;;;;;2.87;2.67;;;3.50;99.90;;;;;;5000701;28;20440;-59
2024/01/21 12:06:39;;;;;;;2.40;2.20;;;3.50;99.90;;;;;;4989655;28;20552;-58
2024/01/21 12:09:06;;;;;;;4.07;3.00;;;3.60;99.90;;;;;;4995028;28;20448;-58
2024/01/21 12:11:35;;;;;;;2.20;2.10;;;3.60;99.90;;;;;;5003277;28;20487;-59
2024/01/21 12:14:02;;;;;;;2.20;2.10;;;3.50;99.90;;;;;;5002811;28;21094;-59
2024/01/21 12:16:29;;;;;;;3.67;2.10;;;3.50;99.90;;;;;;5001748;28;20491;-59
2024/01/21 12:18:56;;;;;;;2.30;2.20;;;3.40;99.90;;;;;;4985810;28;20468;-57
2024/01/21 12:21:23;;;;;;;2.63;2.50;;;3.30;99.90;;;;;;4997193;28;20458;-59
2024/01/21 12:23:53;;;;;;;4.77;2.47;;;3.30;99.90;;;;;;4996841;28;20532;-57
2024/01/21 12:26:21;;;;;;;3.40;3.20;;;3.20;99.90;;;;;;4998107;28;20444;-56
2024/01/21 12:28:55;;;;;;;3.37;3.07;;;3.20;99.90;;;;;;4998814;28;20456;-56
2024/01/21 12:31:25;;;;;;;3.17;2.97;;;3.20;99.90;;;;;;4997821;28;20428;-55
2024/01/21 12:33:52;;;;;;;2.60;2.40;;;3.20;99.90;;;;;;5011227;28;20461;-56
2024/01/21 12:36:18;;;;;;;4.23;2.50;;;3.20;99.90;;;;;;5001920;28;20527;-55
2024/01/21 12:38:45;;;;;;;8.50;2.30;;;3.20;99.90;;;;;;5002231;28;20449;-56
2024/01/21 12:41:13;;;;;;;2.57;2.37;;;3.20;99.90;;;;;;4994056;28;20519;-55
2024/01/21 12:43:41;;;;;;;9.40;2.60;;;3.20;99.90;;;;;;4989109;28;20464;-55
2024/01/21 12:46:08;;;;;;;2.43;2.33;;;3.20;99.90;;;;;;5007051;28;20480;-57